createdAt,value
2018-10-07T00:02:35.440Z,17.50
2018-10-07T00:05:46.840Z,18.73
2018-10-07T00:08:58.903Z,19.35
2018-10-07T00:12:10.057Z,19.32
2018-10-07T00:15:21.124Z,19.87
2018-10-07T00:18:32.904Z,21.30
2018-10-07T00:21:44.844Z,23.12
2018-10-07T00:24:55.901Z,19.00
2018-10-07T00:28:07.613Z,19.77
2018-10-07T00:31:19.145Z,18.40
2018-10-07T00:34:31.286Z,20.77
2018-10-07T00:37:43.410Z,18.85
2018-10-07T00:40:55.085Z,19.55
2018-10-07T00:44:06.391Z,23.12
2018-10-07T00:47:18.246Z,18.70
2018-10-07T00:50:30.177Z,21.90
2018-10-07T00:53:42.555Z,22.50
2018-10-07T00:56:54.127Z,19.45
2018-10-07T01:00:07.102Z,25.40
2018-10-07T01:03:18.897Z,19.77
2018-10-07T01:06:29.927Z,20.00
2018-10-07T01:09:41.795Z,20.27
2018-10-07T01:12:53.536Z,20.60
2018-10-07T01:16:05.468Z,20.10
2018-10-07T01:19:16.468Z,19.67
2018-10-07T01:22:28.062Z,20.05
2018-10-07T01:25:39.327Z,22.93
2018-10-07T01:28:51.178Z,21.85
2018-10-07T01:32:02.383Z,19.55
2018-10-07T01:35:13.421Z,19.40
2018-10-07T01:38:24.735Z,19.00
2018-10-07T01:41:36.304Z,18.37
2018-10-07T01:44:47.790Z,18.05
2018-10-07T01:47:59.398Z,21.35
2018-10-07T01:51:11.089Z,19.05
2018-10-07T01:54:22.884Z,20.32
2018-10-07T01:57:34.589Z,22.17
2018-10-07T02:00:46.773Z,21.27
2018-10-07T02:03:58.635Z,21.02
2018-10-07T02:07:09.688Z,21.97
2018-10-07T02:10:21.157Z,20.35
2018-10-07T02:13:32.850Z,20.50
2018-10-07T02:16:44.963Z,23.85
2018-10-07T02:19:57.007Z,18.82
2018-10-07T02:23:08.306Z,21.68
2018-10-07T02:26:20.249Z,18.02
2018-10-07T02:29:31.465Z,20.88
2018-10-07T02:32:43.351Z,23.18
2018-10-07T02:35:54.994Z,17.82
2018-10-07T02:39:09.498Z,20.05
2018-10-07T02:42:20.452Z,19.50
2018-10-07T02:45:31.892Z,22.05
2018-10-07T02:48:43.760Z,21.95
2018-10-07T02:51:56.057Z,21.15
2018-10-07T02:55:08.872Z,19.25
2018-10-07T02:58:20.204Z,20.40
2018-10-07T03:01:32.032Z,21.17
2018-10-07T03:04:43.990Z,24.30
2018-10-07T03:07:55.428Z,19.67
2018-10-07T03:11:07.879Z,19.80
2018-10-07T03:14:19.416Z,19.15
2018-10-07T03:17:30.806Z,22.35
2018-10-07T03:20:41.809Z,20.55
2018-10-07T03:23:53.375Z,20.75
2018-10-07T03:27:04.676Z,21.50
2018-10-07T03:30:16.126Z,22.05
2018-10-07T03:33:28.015Z,19.35
2018-10-07T03:36:39.099Z,21.30
2018-10-07T03:39:50.163Z,20.65
2018-10-07T03:43:01.601Z,23.15
2018-10-07T03:46:13.826Z,23.32
2018-10-07T03:49:25.622Z,21.48
2018-10-07T03:52:37.103Z,20.32
2018-10-07T03:55:48.547Z,19.30
2018-10-07T03:59:00.179Z,21.60
2018-10-07T04:02:11.793Z,23.35
2018-10-07T04:05:23.576Z,23.60
2018-10-07T04:08:35.356Z,23.02
2018-10-07T04:11:46.748Z,21.27
2018-10-07T04:14:58.525Z,19.67
2018-10-07T04:18:10.450Z,23.12
2018-10-07T04:21:21.564Z,22.20
2018-10-07T04:24:34.518Z,22.52
2018-10-07T04:27:46.025Z,24.00
2018-10-07T04:30:57.342Z,29.67
2018-10-07T04:34:08.493Z,19.82
2018-10-07T04:37:20.002Z,22.52
2018-10-07T04:40:31.888Z,26.15
2018-10-07T04:43:43.184Z,23.15
2018-10-07T04:46:54.628Z,19.27
2018-10-07T04:50:07.204Z,23.00
2018-10-07T04:53:18.550Z,26.10
2018-10-07T04:56:30.755Z,26.87
2018-10-07T04:59:42.563Z,20.43
2018-10-07T05:02:53.662Z,22.10
2018-10-07T05:06:05.394Z,25.02
2018-10-07T05:09:17.703Z,20.27
2018-10-07T05:12:29.156Z,24.52
2018-10-07T05:15:41.394Z,19.62
2018-10-07T05:18:52.913Z,23.07
2018-10-07T05:22:04.718Z,20.75
2018-10-07T05:25:16.737Z,19.45
2018-10-07T05:28:28.705Z,23.70
2018-10-07T05:31:40.358Z,25.92
2018-10-07T05:34:51.641Z,25.40
2018-10-07T05:38:03.439Z,24.37
2018-10-07T05:41:15.033Z,23.75
2018-10-07T05:44:26.309Z,20.95
2018-10-07T05:47:38.275Z,23.42
2018-10-07T05:50:50.286Z,21.75
2018-10-07T05:54:02.083Z,23.30
2018-10-07T05:57:14.583Z,22.10
2018-10-07T06:00:28.550Z,26.00
2018-10-07T06:04:08.678Z,23.67
2018-10-07T06:07:21.495Z,25.35
2018-10-07T06:10:33.550Z,23.22
2018-10-07T06:13:45.298Z,26.30
2018-10-07T06:16:57.778Z,28.07
2018-10-07T06:20:08.934Z,25.68
2018-10-07T06:23:21.252Z,30.00
2018-10-07T06:26:33.142Z,34.63
2018-10-07T06:29:45.027Z,26.05
2018-10-07T06:32:57.303Z,43.45
2018-10-07T06:36:08.900Z,22.20
2018-10-07T06:39:20.868Z,26.52
2018-10-07T06:42:32.245Z,20.82
2018-10-07T06:45:43.660Z,24.35
2018-10-07T06:48:55.123Z,22.15
2018-10-07T06:52:07.494Z,22.42
2018-10-07T06:55:19.502Z,21.95
2018-10-07T06:58:31.790Z,23.62
2018-10-07T07:01:43.482Z,22.95
2018-10-07T07:04:55.660Z,23.85
2018-10-07T07:08:07.657Z,19.62
2018-10-07T07:11:18.793Z,26.20
2018-10-07T07:14:30.389Z,27.27
2018-10-07T07:17:41.423Z,32.23
2018-10-07T07:20:53.393Z,31.70
2018-10-07T07:24:04.927Z,39.80
2018-10-07T07:27:16.923Z,40.92
2018-10-07T07:30:28.879Z,36.98
2018-10-07T07:33:40.600Z,33.98
2018-10-07T07:36:52.973Z,37.83
2018-10-07T07:40:05.005Z,35.83
2018-10-07T07:43:16.964Z,42.35
2018-10-07T07:46:28.694Z,35.25
2018-10-07T07:49:42.395Z,35.17
2018-10-07T07:52:54.154Z,30.15
2018-10-07T07:56:05.172Z,35.00
2018-10-07T07:59:16.842Z,46.02
2018-10-07T08:02:28.561Z,30.72
2018-10-07T08:05:39.927Z,36.88
2018-10-07T08:08:51.429Z,39.55
2018-10-07T08:12:03.681Z,35.50
2018-10-07T08:15:15.622Z,35.17
2018-10-07T08:18:26.955Z,38.83
2018-10-07T08:21:38.406Z,33.67
2018-10-07T08:24:50.331Z,33.02
2018-10-07T08:28:01.599Z,31.05
2018-10-07T08:31:13.114Z,38.28
2018-10-07T08:34:24.268Z,31.62
2018-10-07T08:37:36.030Z,36.42
2018-10-07T08:40:47.626Z,36.38
2018-10-07T08:43:59.189Z,32.50
2018-10-07T08:47:10.903Z,44.90
2018-10-07T08:50:22.422Z,42.48
2018-10-07T08:53:33.461Z,40.90
2018-10-07T08:56:45.447Z,39.33
2018-10-07T08:59:56.868Z,37.00
2018-10-07T09:03:08.627Z,42.85
2018-10-07T09:06:19.998Z,38.83
2018-10-07T09:09:31.225Z,43.78
2018-10-07T09:12:42.595Z,51.25
2018-10-07T09:15:53.827Z,57.43
2018-10-07T09:19:05.015Z,44.45
2018-10-07T09:22:16.223Z,53.35
2018-10-07T09:25:27.490Z,50.15
2018-10-07T09:28:40.314Z,45.90
2018-10-07T09:31:51.954Z,57.13
2018-10-07T09:35:04.011Z,52.03
2018-10-07T09:38:15.211Z,54.98
2018-10-07T09:41:26.717Z,63.15
2018-10-07T09:44:38.127Z,40.15
2018-10-07T09:47:49.908Z,55.25
2018-10-07T09:51:01.979Z,54.70
2018-10-07T09:54:13.047Z,79.65
2018-10-07T09:57:24.370Z,60.67
2018-10-07T10:00:41.415Z,75.45
2018-10-07T10:03:54.065Z,70.15
2018-10-07T10:07:06.063Z,68.67
2018-10-07T10:10:18.456Z,61.60
2018-10-07T10:13:30.447Z,69.50
2018-10-07T10:16:53.395Z,66.77
2018-10-07T10:20:08.749Z,69.10
2018-10-07T10:23:37.460Z,62.62
2018-10-07T10:27:05.395Z,61.05
2018-10-07T10:30:40.811Z,70.52
2018-10-07T10:34:12.410Z,72.10
2018-10-07T10:37:42.358Z,55.80
2018-10-07T10:41:08.833Z,51.83
2018-10-07T10:44:57.854Z,57.45
2018-10-07T10:48:21.973Z,49.27
2018-10-07T10:54:02.650Z,53.60
2018-10-07T10:57:22.044Z,52.43
2018-10-07T11:00:48.808Z,53.33
2018-10-07T11:04:20.898Z,53.33
2018-10-07T11:08:19.167Z,55.45
2018-10-07T11:12:12.744Z,48.63
2018-10-07T11:16:37.819Z,47.38
2018-10-07T11:19:57.459Z,63.42
2018-10-07T11:23:27.633Z,56.95
2018-10-07T11:31:29.963Z,61.75
2018-10-07T11:35:11.334Z,52.85
2018-10-07T11:38:38.321Z,57.50
2018-10-07T11:42:02.666Z,60.85
2018-10-07T11:45:21.096Z,56.20
2018-10-07T11:49:45.296Z,62.90
2018-10-07T11:53:40.377Z,60.60
2018-10-07T11:56:52.004Z,39.80
2018-10-07T12:00:14.223Z,79.72
2018-10-07T12:03:26.451Z,65.32
2018-10-07T12:06:38.530Z,68.80
2018-10-07T12:09:50.587Z,77.45
2018-10-07T12:13:03.358Z,57.45
2018-10-07T12:16:15.744Z,63.25
2018-10-07T12:19:30.227Z,44.53
2018-10-07T12:22:43.273Z,52.35
2018-10-07T12:25:54.922Z,53.48
2018-10-07T12:29:07.472Z,61.28
2018-10-07T12:32:22.879Z,52.88
2018-10-07T12:35:36.416Z,50.33
2018-10-07T12:38:48.994Z,53.55
2018-10-07T12:42:02.789Z,46.50
2018-10-07T12:45:17.533Z,52.23
2018-10-07T12:48:30.175Z,50.40
2018-10-07T12:51:43.586Z,44.18
2018-10-07T12:54:57.083Z,45.23
2018-10-07T12:58:10.729Z,40.50
2018-10-07T13:01:24.612Z,46.05
2018-10-07T13:04:40.906Z,44.65
2018-10-07T13:07:53.279Z,39.42
2018-10-07T13:11:05.720Z,39.10
2018-10-07T13:14:17.236Z,42.62
2018-10-07T13:17:28.595Z,37.50
2018-10-07T13:20:40.569Z,27.70
2018-10-07T13:23:52.655Z,35.38
2018-10-07T13:27:03.998Z,38.73
2018-10-07T13:30:15.213Z,44.45
2018-10-07T13:33:27.241Z,41.40
2018-10-07T13:36:39.817Z,31.25
2018-10-07T13:39:51.213Z,26.87
2018-10-07T13:43:02.705Z,35.55
2018-10-07T13:46:14.879Z,32.38
2018-10-07T13:49:26.845Z,28.73
2018-10-07T13:52:38.043Z,30.52
2018-10-07T13:55:49.374Z,30.57
2018-10-07T13:59:01.056Z,39.60
2018-10-07T14:02:14.045Z,27.20
2018-10-07T14:05:25.854Z,22.93
2018-10-07T14:08:37.362Z,29.80
2018-10-07T14:11:49.312Z,29.25
2018-10-07T14:15:00.833Z,28.25
2018-10-07T14:18:12.919Z,25.60
2018-10-07T14:21:24.491Z,30.45
2018-10-07T14:24:36.250Z,34.20
2018-10-07T14:27:48.380Z,27.25
2018-10-07T14:31:01.155Z,28.27
2018-10-07T14:34:12.635Z,33.05
2018-10-07T14:37:24.681Z,28.95
2018-10-07T14:40:36.460Z,30.08
2018-10-07T14:43:47.828Z,28.42
2018-10-07T14:46:59.662Z,37.88
2018-10-07T14:50:11.620Z,32.70
2018-10-07T14:53:22.736Z,33.25
2018-10-07T14:56:34.938Z,35.08
2018-10-07T14:59:46.580Z,24.72
2018-10-07T15:02:58.521Z,27.87
2018-10-07T15:06:10.600Z,29.12
2018-10-07T15:09:22.465Z,26.30
2018-10-07T15:12:34.617Z,30.92
2018-10-07T15:15:46.334Z,26.73
2018-10-07T15:18:57.831Z,28.52
2018-10-07T15:22:09.494Z,29.18
2018-10-07T15:25:21.788Z,24.63
2018-10-07T15:28:33.505Z,24.72
2018-10-07T15:31:45.517Z,21.40
2018-10-07T15:34:57.357Z,22.77
2018-10-07T15:38:10.085Z,25.65
2018-10-07T15:41:22.026Z,27.20
2018-10-07T15:44:34.017Z,24.25
2018-10-07T15:47:45.175Z,28.12
2018-10-07T15:50:57.058Z,22.15
2018-10-07T15:54:08.094Z,20.75
2018-10-07T15:57:20.324Z,20.68
2018-10-07T16:00:32.313Z,22.55
2018-10-07T16:03:44.148Z,17.70
2018-10-07T16:06:56.086Z,17.37
2018-10-07T16:10:07.870Z,17.50
2018-10-07T16:13:20.078Z,21.48
2018-10-07T16:16:31.765Z,18.23
2018-10-07T16:19:43.354Z,19.87
2018-10-07T16:22:55.830Z,17.65
2018-10-07T16:26:07.071Z,18.00
2018-10-07T16:29:19.927Z,19.40
2018-10-07T16:32:32.971Z,19.45
2018-10-07T16:35:44.289Z,18.10
2018-10-07T16:38:55.397Z,35.78
2018-10-07T16:42:07.262Z,19.67
2018-10-07T16:45:18.807Z,18.15
2018-10-07T16:48:30.259Z,17.92
2018-10-07T16:51:42.409Z,18.15
2018-10-07T16:54:55.360Z,21.27
2018-10-07T16:58:07.985Z,18.75
2018-10-07T17:01:19.623Z,17.37
2018-10-07T17:04:31.164Z,21.48
2018-10-07T17:07:43.204Z,19.23
2018-10-07T17:10:55.739Z,18.45
2018-10-07T17:14:07.843Z,17.95
2018-10-07T17:17:19.493Z,17.50
2018-10-07T17:20:30.641Z,17.27
2018-10-07T17:23:41.882Z,17.60
2018-10-07T17:26:53.145Z,19.02
2018-10-07T17:30:04.583Z,19.75
2018-10-07T17:33:16.404Z,21.00
2018-10-07T17:36:27.992Z,19.98
2018-10-07T17:39:40.040Z,17.77
2018-10-07T17:42:51.105Z,18.23
2018-10-07T17:46:02.215Z,19.60
2018-10-07T17:49:42.935Z,18.70
2018-10-07T17:53:11.637Z,18.87
2018-10-07T17:57:00.634Z,19.02
2018-10-07T18:00:31.558Z,18.10
2018-10-07T18:03:46.260Z,19.73
2018-10-07T18:07:20.897Z,17.90
2018-10-07T18:10:34.208Z,17.85
2018-10-07T18:14:24.340Z,18.00
2018-10-07T18:17:37.335Z,16.95
2018-10-07T18:20:49.248Z,19.37
2018-10-07T18:24:00.510Z,17.92
2018-10-07T18:27:11.820Z,22.02
2018-10-07T18:30:22.951Z,18.77
2018-10-07T18:33:34.409Z,17.40
2018-10-07T18:36:45.737Z,19.92
2018-10-07T18:39:56.864Z,17.75
2018-10-07T18:43:08.264Z,17.30
2018-10-07T18:46:20.284Z,17.02
2018-10-07T18:49:31.798Z,18.40
2018-10-07T18:52:43.931Z,19.25
2018-10-07T18:55:55.749Z,17.30
2018-10-07T18:59:06.951Z,24.27
2018-10-07T19:02:18.503Z,17.25
2018-10-07T19:05:30.386Z,18.15
2018-10-07T19:08:42.376Z,18.23
2018-10-07T19:11:53.977Z,17.75
2018-10-07T19:15:20.273Z,19.82
2018-10-07T19:18:32.307Z,17.15
2018-10-07T19:21:44.442Z,18.55
2018-10-07T19:24:55.506Z,17.27
2018-10-07T19:28:07.906Z,18.70
2018-10-07T19:31:21.694Z,22.30
2018-10-07T19:34:33.215Z,17.90
2018-10-07T19:37:45.799Z,18.65
2018-10-07T19:40:57.360Z,18.20
2018-10-07T19:44:08.780Z,18.52
2018-10-07T19:47:25.978Z,18.92
2018-10-07T19:50:39.606Z,20.15
2018-10-07T19:53:51.425Z,17.60
2018-10-07T19:57:03.317Z,20.37
2018-10-07T20:00:15.034Z,18.00
2018-10-07T20:03:26.209Z,21.65
2018-10-07T20:06:37.993Z,18.00
2018-10-07T20:09:49.916Z,21.87
2018-10-07T20:13:02.091Z,18.73
2018-10-07T20:16:13.977Z,21.62
2018-10-07T20:19:26.076Z,18.20
2018-10-07T20:22:39.275Z,20.15
2018-10-07T20:25:50.643Z,17.27
2018-10-07T20:29:02.610Z,16.85
2018-10-07T20:32:13.832Z,17.10
2018-10-07T20:35:25.674Z,18.67
2018-10-07T20:38:37.689Z,18.55
2018-10-07T20:41:48.778Z,17.65
2018-10-07T20:45:00.075Z,17.50
2018-10-07T20:48:11.990Z,17.67
2018-10-07T20:51:23.070Z,16.37
2018-10-07T20:54:34.354Z,17.73
2018-10-07T20:57:45.995Z,24.87
2018-10-07T21:00:57.143Z,17.50
2018-10-07T21:04:09.038Z,19.98
2018-10-07T21:07:20.287Z,18.65
2018-10-07T21:10:31.343Z,19.80
2018-10-07T21:13:43.006Z,18.10
2018-10-07T21:16:54.348Z,20.80
2018-10-07T21:20:06.376Z,16.77
2018-10-07T21:23:18.664Z,18.37
2018-10-07T21:26:30.131Z,17.75
2018-10-07T21:29:41.452Z,21.68
2018-10-07T21:32:53.441Z,18.32
2018-10-07T21:36:04.508Z,19.12
2018-10-07T21:39:15.579Z,17.98
2018-10-07T21:42:26.690Z,16.75
2018-10-07T21:45:37.824Z,17.57
2018-10-07T21:48:48.966Z,19.85
2018-10-07T21:52:00.933Z,17.27
2018-10-07T21:55:12.049Z,23.92
2018-10-07T21:58:23.169Z,17.57
2018-10-07T22:01:35.186Z,17.30
2018-10-07T22:04:46.529Z,17.12
2018-10-07T22:07:58.258Z,17.17
2018-10-07T22:11:09.691Z,18.65
2018-10-07T22:14:21.401Z,17.17
2018-10-07T22:17:33.225Z,17.73
2018-10-07T22:20:44.575Z,19.23
2018-10-07T22:23:56.535Z,19.25
2018-10-07T22:27:08.089Z,17.17
2018-10-07T22:30:19.455Z,16.75
2018-10-07T22:33:31.621Z,17.50
2018-10-07T22:36:42.815Z,18.42
2018-10-07T22:39:54.061Z,17.40
2018-10-07T22:43:06.041Z,17.75
2018-10-07T22:46:17.902Z,16.75
2018-10-07T22:49:29.098Z,18.05
2018-10-07T22:52:40.720Z,20.52
2018-10-07T22:55:51.938Z,16.52
2018-10-07T22:59:03.152Z,17.32
2018-10-07T23:02:14.270Z,16.73
2018-10-07T23:05:25.452Z,17.20
2018-10-07T23:08:37.502Z,20.20
2018-10-07T23:11:48.986Z,18.67
2018-10-07T23:15:00.521Z,20.10
2018-10-07T23:18:11.681Z,17.40
2018-10-07T23:21:23.123Z,18.12
2018-10-07T23:24:35.073Z,17.82
2018-10-07T23:27:46.857Z,16.77
2018-10-07T23:30:58.245Z,16.70
2018-10-07T23:34:10.299Z,18.80
2018-10-07T23:37:21.647Z,18.15
2018-10-07T23:40:32.923Z,16.73
2018-10-07T23:43:44.070Z,16.95
2018-10-07T23:46:55.996Z,16.23
2018-10-07T23:50:07.869Z,17.57
2018-10-07T23:53:19.074Z,18.80
2018-10-07T23:56:30.137Z,17.10
2018-10-07T23:59:41.913Z,18.77
